Time;durP1;ratioP1;P1;durP2;ratioP2;P2;SDS_P1;SDS_P2;PMS_P1;PMS_P2;Temp;Humidity;BMP_temperature;BMP_pressure;BME280_temperature;BME280_humidity;BME280_pressure;Samples;Min_cycle;Max_cycle;Signal;HPM_P1;HPM_P2
2023/02/16 00:01:37;;;;;;;;;;;;;;;19.96;47.63;101861.06;5051713;28;1563;-61
2023/02/16 00:04:08;;;;;;;;;;;;;;;19.97;47.72;101859.69;5054302;28;2419;-61
2023/02/16 00:06:34;;;;;;;;;;;;;;;19.97;47.76;101865.44;5055009;28;2449;-61
2023/02/16 00:09:01;;;;;;;;;;;;;;;19.98;47.86;101866.97;5060062;28;2894;-60
2023/02/16 00:14:12;;;;;;;;;;;;;;;19.95;47.92;101856.72;5053396;28;1589;-60
2023/02/16 00:16:39;;;;;;;;;;;;;;;19.96;47.88;101866.81;5057613;28;1739;-60
2023/02/16 00:19:25;;;;;;;;;;;;;;;19.95;47.98;101864.56;5051854;28;2647;-61
2023/02/16 00:21:52;;;;;;;;;;;;;;;19.94;47.93;101855.19;5053205;28;2598;-60
2023/02/16 00:24:18;;;;;;;;;;;;;;;19.94;48.05;101855.19;5055024;28;2129;-60
2023/02/16 00:26:45;;;;;;;;;;;;;;;19.93;48.05;101865.22;5054674;28;2483;-60
2023/02/16 00:29:19;;;;;;;;;;;;;;;19.93;47.94;101853.72;5051220;28;2722;-60
2023/02/16 00:31:45;;;;;;;;;;;;;;;19.93;47.90;101853.72;5057673;28;2149;-61
2023/02/16 00:34:23;;;;;;;;;;;;;;;19.93;48.02;101865.22;5050997;28;2606;-60
2023/02/16 00:36:52;;;;;;;;;;;;;;;19.95;47.98;101856.72;5053500;28;1561;-60
2023/02/16 00:39:21;;;;;;;;;;;;;;;19.96;47.83;101863.22;5052155;28;2915;-60
2023/02/16 00:41:50;;;;;;;;;;;;;;;19.96;47.94;101869.69;5049514;28;2245;-60
2023/02/16 00:44:17;;;;;;;;;;;;;;;19.97;48.06;101859.69;5053189;28;1791;-60
2023/02/16 00:46:43;;;;;;;;;;;;;;;19.96;47.92;101858.19;5056461;28;1918;-59
2023/02/16 00:49:13;;;;;;;;;;;;;;;19.97;48.04;101853.19;5051857;28;3218;-60
2023/02/16 00:51:40;;;;;;;;;;;;;;;19.96;48.06;101852.44;5062083;28;2451;-60
2023/02/16 00:54:06;;;;;;;;;;;;;;;19.95;47.93;101847.31;5059342;28;1693;-60
2023/02/16 00:56:32;;;;;;;;;;;;;;;19.94;47.96;101855.19;5052569;28;2615;-60
2023/02/16 00:58:59;;;;;;;;;;;;;;;19.94;48.04;101848.69;5047377;28;2792;-60
2023/02/16 01:01:26;;;;;;;;;;;;;;;19.93;48.04;101853.72;5054644;28;1600;-60
2023/02/16 01:03:52;;;;;;;;;;;;;;;19.92;48.05;101852.19;5057486;28;2591;-61
2023/02/16 01:11:55;;;;;;;;;;;;;;;19.92;48.06;101857.19;5050447;28;2238;-61
2023/02/16 01:14:21;;;;;;;;;;;;;;;19.93;48.05;101844.31;5042962;28;2955;-61
2023/02/16 01:16:48;;;;;;;;;;;;;;;19.94;47.94;101855.19;5052274;28;1553;-61
2023/02/16 01:19:14;;;;;;;;;;;;;;;19.95;48.05;101850.97;5054660;28;2904;-61
2023/02/16 01:21:41;;;;;;;;;;;;;;;19.96;47.96;101843.81;5053640;28;2793;-61
2023/02/16 01:24:07;;;;;;;;;;;;;;;19.95;48.05;101845.22;5056549;28;2621;-61
2023/02/16 01:26:36;;;;;;;;;;;;;;;19.94;47.96;101832.19;5053781;28;2560;-61
2023/02/16 01:29:02;;;;;;;;;;;;;;;19.95;48.01;101836.59;5055817;28;2883;-60
2023/02/16 01:31:29;;;;;;;;;;;;;;;19.94;47.91;101843.69;5059046;28;2692;-60
2023/02/16 01:33:55;;;;;;;;;;;;;;;19.93;48.04;101842.22;5051786;28;2660;-61
2023/02/16 01:36:22;;;;;;;;;;;;;;;19.93;48.09;101838.56;5053915;28;2431;-61
2023/02/16 01:38:49;;;;;;;;;;;;;;;19.92;47.93;101834.94;5050407;28;1957;-61
2023/02/16 01:41:34;;;;;;;;;;;;;;;19.91;48.02;101839.19;5053100;28;1614;-60
2023/02/16 01:44:01;;;;;;;;;;;;;;;19.92;47.90;101834.19;5051713;28;2579;-60
2023/02/16 01:46:31;;;;;;;;;;;;;;;19.91;47.92;101836.31;5060118;28;1708;-61
2023/02/16 01:48:58;;;;;;;;;;;;;;;19.92;47.95;101840.69;5052160;28;2698;-61
2023/02/16 01:51:26;;;;;;;;;;;;;;;19.92;47.96;101846.44;5055258;28;1662;-61
2023/02/16 01:53:57;;;;;;;;;;;;;;;19.94;47.89;101831.44;5036224;28;2806;-61
2023/02/16 01:56:31;;;;;;;;;;;;;;;19.95;47.94;101839.47;5052852;28;2440;-61
2023/02/16 01:59:10;;;;;;;;;;;;;;;19.96;48.04;101828.72;5053394;28;2367;-61
2023/02/16 02:01:37;;;;;;;;;;;;;;;19.96;47.87;101823.69;5052811;28;2367;-61
2023/02/16 02:06:56;;;;;;;;;;;;;;;19.94;47.97;101823.56;5053255;28;2304;-60
2023/02/16 02:09:24;;;;;;;;;;;;;;;19.93;47.89;101827.84;5051378;28;2616;-61
2023/02/16 02:11:53;;;;;;;;;;;;;;;19.93;47.94;101824.97;5058799;28;2549;-61
2023/02/16 02:14:25;;;;;;;;;;;;;;;19.92;48.07;101811.94;5034769;28;2935;-61
2023/02/16 02:16:53;;;;;;;;;;;;;;;19.92;47.85;101811.19;5052839;28;2269;-60
2023/02/16 03:04:05;;;;;;;;;;;;;;;19.90;47.84;101785.19;5031758;28;2573;-60
2023/02/16 03:06:33;;;;;;;;;;;;;;;19.90;47.85;101785.19;5050283;28;1670;-60
2023/02/16 03:09:00;;;;;;;;;;;;;;;19.90;47.89;101785.94;5056251;28;1914;-60
2023/02/16 03:14:15;;;;;;;;;;;;;;;19.91;47.86;101795.34;5052983;28;2628;-60
2023/02/16 03:16:45;;;;;;;;;;;;;;;19.90;47.91;101791.69;5050585;28;2845;-60
2023/02/16 03:30:13;;;;;;;;;;;;;;;19.87;47.85;101785.06;5048971;28;2838;-60
2023/02/16 03:32:40;;;;;;;;;;;;;;;19.88;48.04;101782.94;5052702;28;1877;-60
2023/02/16 03:35:07;;;;;;;;;;;;;;;19.88;47.86;101785.81;5051207;28;1671;-60
2023/02/16 03:37:33;;;;;;;;;;;;;;;19.89;47.83;101790.19;5055134;28;2804;-60
2023/02/16 03:42:48;;;;;;;;;;;;;;;19.89;47.76;101784.44;5055785;28;2383;-60
2023/02/16 03:45:15;;;;;;;;;;;;;;;19.89;47.86;101778.69;5055075;28;2170;-60
2023/02/16 03:47:41;;;;;;;;;;;;;;;19.91;47.84;101775.22;5054949;28;2548;-60
2023/02/16 03:50:08;;;;;;;;;;;;;;;19.91;47.83;101780.97;5054814;28;2738;-60
2023/02/16 03:52:34;;;;;;;;;;;;;;;19.91;47.80;101781.72;5057213;28;1662;-60
2023/02/16 03:55:00;;;;;;;;;;;;;;;19.93;47.76;101786.81;5055144;28;1838;-60
2023/02/16 03:57:27;;;;;;;;;;;;;;;19.94;47.80;101786.19;5054172;28;2527;-60
2023/02/16 03:59:53;;;;;;;;;;;;;;;19.94;47.72;101774.69;5051214;28;2744;-60
2023/02/16 04:02:19;;;;;;;;;;;;;;;19.95;47.78;101786.94;5058468;28;1740;-60
2023/02/16 04:04:46;;;;;;;;;;;;;;;19.96;47.73;101783.47;5052029;28;2767;-60
2023/02/16 04:07:12;;;;;;;;;;;;;;;19.95;47.95;101789.81;5052361;28;2688;-60
2023/02/16 04:09:39;;;;;;;;;;;;;;;19.96;47.80;101777.72;5056033;28;2964;-60
2023/02/16 04:14:50;;;;;;;;;;;;;;;19.95;47.82;101787.72;5049750;28;1786;-60
2023/02/16 04:17:16;;;;;;;;;;;;;;;19.96;47.75;101776.97;5050241;28;2797;-60
2023/02/16 04:19:42;;;;;;;;;;;;;;;19.94;47.90;101780.44;5053746;28;2498;-60
2023/02/16 04:22:09;;;;;;;;;;;;;;;19.94;47.89;101776.84;5053720;28;1795;-60
2023/02/16 04:24:35;;;;;;;;;;;;;;;19.93;47.88;101784.72;5051862;28;1902;-60
2023/02/16 04:27:02;;;;;;;;;;;;;;;19.91;47.84;101781.72;5050792;28;2590;-60
2023/02/16 04:29:28;;;;;;;;;;;;;;;19.93;47.92;101784.72;5053014;28;2846;-60
2023/02/16 04:31:54;;;;;;;;;;;;;;;19.91;47.39;101781.72;5051965;28;2011;-60
2023/02/16 04:34:21;;;;;;;;;;;;;;;19.91;47.76;101781.72;5060030;28;2279;-60
2023/02/16 04:36:47;;;;;;;;;;;;;;;19.92;47.59;101776.69;5058175;28;2209;-60
2023/02/16 04:39:13;;;;;;;;;;;;;;;19.93;47.72;101772.44;5056745;28;2064;-60
2023/02/16 04:41:40;;;;;;;;;;;;;;;19.92;47.87;101771.69;5058311;28;1676;-60
2023/02/16 04:44:06;;;;;;;;;;;;;;;19.94;47.67;101773.97;5056107;28;2806;-60
2023/02/16 04:46:32;;;;;;;;;;;;;;;19.94;47.65;101774.69;5056085;28;3312;-60
2023/02/16 04:48:59;;;;;;;;;;;;;;;19.94;47.73;101766.06;5061055;28;1925;-60
2023/02/16 04:51:25;;;;;;;;;;;;;;;19.94;47.80;101768.94;5056980;28;1743;-60
2023/02/16 04:53:51;;;;;;;;;;;;;;;19.95;47.76;101776.22;5055766;28;2546;-60
2023/02/16 04:56:18;;;;;;;;;;;;;;;19.93;47.59;101770.34;5055737;28;1851;-60
2023/02/16 04:58:44;;;;;;;;;;;;;;;19.94;47.73;101774.69;5056588;28;2527;-60
2023/02/16 05:01:20;;;;;;;;;;;;;;;19.93;47.71;101778.97;5061799;28;1688;-60
2023/02/16 05:03:46;;;;;;;;;;;;;;;19.92;47.76;101777.44;5055500;28;2629;-60
2023/02/16 05:06:13;;;;;;;;;;;;;;;19.93;47.74;101778.97;5057078;28;1720;-61
2023/02/16 05:08:39;;;;;;;;;;;;;;;19.94;47.78;101779.72;5055900;28;1918;-61
2023/02/16 05:16:35;;;;;;;;;;;;;;;19.96;47.64;101789.22;5055328;28;1731;-60
2023/02/16 05:19:02;;;;;;;;;;;;;;;19.97;47.73;101784.94;5058828;28;1854;-60
2023/02/16 05:21:31;;;;;;;;;;;;;;;19.96;47.75;101777.72;5050999;28;1712;-61
2023/02/16 05:23:58;;;;;;;;;;;;;;;19.97;47.68;101787.81;5052203;28;2522;-61
2023/02/16 05:26:24;;;;;;;;;;;;;;;19.99;47.69;101790.09;5050337;28;2270;-61
2023/02/16 05:28:50;;;;;;;;;;;;;;;19.97;47.69;101790.69;5051621;28;2495;-61
2023/02/16 05:31:17;;;;;;;;;;;;;;;19.99;47.75;101787.22;5050515;28;2494;-61
2023/02/16 05:33:43;;;;;;;;;;;;;;;19.99;47.71;101776.44;5048873;28;2746;-61
2023/02/16 05:36:10;;;;;;;;;;;;;;;19.97;47.91;101779.19;5050740;28;1590;-60
2023/02/16 05:38:36;;;;;;;;;;;;;;;19.96;47.72;101783.47;5049781;28;2862;-61
2023/02/16 05:41:02;;;;;;;;;;;;;;;19.97;47.83;101787.81;5056473;28;2527;-60
2023/02/16 05:43:29;;;;;;;;;;;;;;;19.96;47.82;101794.94;5052012;28;2708;-61
2023/02/16 05:45:56;;;;;;;;;;;;;;;19.96;47.75;101789.22;5058429;28;2242;-61
2023/02/16 05:48:22;;;;;;;;;;;;;;;19.95;47.62;101787.72;5054601;28;2806;-61
2023/02/16 05:50:48;;;;;;;;;;;;;;;19.96;47.81;101797.81;5058766;28;2616;-61
2023/02/16 05:53:15;;;;;;;;;;;;;;;19.97;47.80;101796.44;5051274;28;2607;-60
2023/02/16 05:55:42;;;;;;;;;;;;;;;19.96;47.81;101794.94;5059471;28;2384;-60
2023/02/16 05:58:09;;;;;;;;;;;;;;;19.97;47.84;101802.19;5050118;28;2570;-60
2023/02/16 06:00:37;;;;;;;;;;;;;;;19.97;47.85;101796.44;5052662;28;1651;-60
2023/02/16 06:03:03;;;;;;;;;;;;;;;19.99;47.83;101798.69;5047137;28;2955;-60
2023/02/16 06:05:29;;;;;;;;;;;;;;;20.08;48.22;101795.72;5049157;28;2749;-62
2023/02/16 06:07:56;;;;;;;;;;;;;;;20.09;47.74;101791.47;5049971;28;2864;-62
2023/02/16 06:10:22;;;;;;;;;;;;;;;20.04;48.32;101795.47;5050263;28;2924;-62
2023/02/16 06:12:48;;;;;;;;;;;;;;;20.02;48.23;101792.47;5050816;28;2900;-62
2023/02/16 06:15:15;;;;;;;;;;;;;;;20.09;48.62;101800.09;5049343;28;2960;-64
2023/02/16 06:17:43;;;;;;;;;;;;;;;20.13;48.66;101784.47;5051450;28;2876;-64
2023/02/16 06:20:09;;;;;;;;;;;;;;;20.14;49.45;101798.22;5049364;28;2983;-64
2023/02/16 06:22:36;;;;;;;;;;;;;;;20.15;49.71;101787.47;5050822;28;2330;-64
2023/02/16 06:25:02;;;;;;;;;;;;;;;20.14;50.09;101800.34;5049949;28;2583;-63
2023/02/16 06:27:28;;;;;;;;;;;;;;;20.15;50.04;101798.97;5050909;28;2822;-63
2023/02/16 06:29:55;;;;;;;;;;;;;;;20.14;50.22;101797.47;5055822;28;1975;-63
2023/02/16 06:32:21;;;;;;;;;;;;;;;20.14;50.40;101797.47;5054871;28;1712;-62
2023/02/16 06:34:48;;;;;;;;;;;;;;;20.13;49.87;101804.59;5052674;28;2948;-64
2023/02/16 06:37:17;;;;;;;;;;;;;;;20.20;49.66;101806.47;5036955;28;3669;-62
2023/02/16 06:39:43;;;;;;;;;;;;;;;20.26;50.01;101809.72;5050512;28;3539;-62
2023/02/16 06:42:09;;;;;;;;;;;;;;;20.32;49.73;101800.72;5051538;28;2808;-67
2023/02/16 06:44:37;;;;;;;;;;;;;;;20.23;50.49;101797.34;5044267;28;3535;-65
2023/02/16 06:47:03;;;;;;;;;;;;;;;20.17;50.18;101796.22;5047255;28;2636;-64
2023/02/16 06:49:29;;;;;;;;;;;;;;;20.17;50.72;101790.47;5051582;28;2705;-64
2023/02/16 06:51:56;;;;;;;;;;;;;;;20.17;50.55;101790.47;5048976;28;2796;-64
2023/02/16 06:54:22;;;;;;;;;;;;;;;20.14;50.25;101800.34;5052056;28;3017;-64
2023/02/16 06:56:49;;;;;;;;;;;;;;;20.13;49.75;101816.09;5050768;28;3161;-64
2023/02/16 06:59:15;;;;;;;;;;;;;;;20.15;49.66;101819.09;5051619;28;2398;-64
2023/02/16 07:01:41;;;;;;;;;;;;;;;20.14;50.34;101809.72;5051161;28;2552;-65
2023/02/16 07:04:10;;;;;;;;;;;;;;;20.15;50.23;101813.34;5051361;28;1621;-64
2023/02/16 07:06:37;;;;;;;;;;;;;;;20.15;50.51;101804.72;5051904;28;3577;-64
2023/02/16 07:09:03;;;;;;;;;;;;;;;20.15;50.34;101807.59;5054207;28;2667;-64
2023/02/16 07:11:29;;;;;;;;;;;;;;;20.15;50.21;101810.47;5054515;28;3143;-63
2023/02/16 07:13:56;;;;;;;;;;;;;;;20.16;49.78;101817.72;5054574;28;3125;-67
2023/02/16 07:16:22;;;;;;;;;;;;;;;20.16;49.45;101806.22;5057217;28;2983;-66
2023/02/16 07:18:48;;;;;;;;;;;;;;;20.22;50.35;101809.47;5055590;28;4196;-68
2023/02/16 07:21:15;;;;;;;;;;;;;;;20.39;50.59;101799.72;5062434;28;3902;-71
2023/02/16 07:23:41;;;;;;;;;;;;;;;20.47;50.31;101800.97;5063468;28;3249;-69
2023/02/16 07:26:07;;;;;;;;;;;;;;;20.51;49.42;101801.22;5055374;28;2986;-77
2023/02/16 07:28:34;;;;;;;;;;;;;;;20.68;49.90;101787.81;5061301;28;2481;-76
2023/02/16 07:31:09;;;;;;;;;;;;;;;20.81;49.49;101792.94;5057515;28;2880;-77
2023/02/16 07:33:36;;;;;;;;;;;;;;;20.86;48.90;101788.91;5057062;28;2733;-78
2023/02/16 07:36:02;;;;;;;;;;;;;;;20.96;48.92;101799.53;5079517;28;1884;-74
2023/02/16 07:38:29;;;;;;;;;;;;;;;21.00;48.47;101791.13;5054208;28;2868;-78
2023/02/16 07:40:56;;;;;;;;;;;;;;;21.02;47.94;101794.13;5056576;28;1561;-70
2023/02/16 07:43:23;;;;;;;;;;;;;;;21.04;47.82;101791.38;5065045;28;2875;-74
2023/02/16 07:45:49;;;;;;;;;;;;;;;21.00;47.32;101794.00;5059299;28;2945;-78
2023/02/16 07:48:15;;;;;;;;;;;;;;;21.04;47.54;101803.63;5054669;28;2777;-73
2023/02/16 07:50:42;;;;;;;;;;;;;;;21.12;47.63;101803.38;5060000;28;1914;-73
2023/02/16 07:53:08;;;;;;;;;;;;;;;21.05;47.48;101810.13;5053172;28;4219;-72
2023/02/16 07:55:41;;;;;;;;;;;;;;;21.06;47.36;101803.00;5061563;28;2697;-70
2023/02/16 07:58:07;;;;;;;;;;;;;;;21.05;47.09;101798.63;5054634;28;3040;-71
2023/02/16 08:00:34;;;;;;;;;;;;;;;21.07;47.05;101807.38;5058437;28;1699;-70
2023/02/16 08:03:00;;;;;;;;;;;;;;;20.59;44.69;101805.97;5058343;28;2872;-71
2023/02/16 08:05:27;;;;;;;;;;;;;;;20.16;43.65;101812.75;5059060;28;1578;-65
2023/02/16 08:07:54;;;;;;;;;;;;;;;20.04;43.25;101812.72;5057071;28;2782;-67
2023/02/16 08:10:20;;;;;;;;;;;;;;;20.06;42.10;101821.47;5054777;28;3320;-68
2023/02/16 08:12:48;;;;;;;;;;;;;;;20.30;41.53;101830.88;5059854;28;2837;-68
2023/02/16 08:15:15;;;;;;;;;;;;;;;20.46;42.33;101830.38;5059533;28;1665;-67
2023/02/16 08:17:42;;;;;;;;;;;;;;;20.67;42.22;101823.75;5060631;28;1852;-72
2023/02/16 08:20:08;;;;;;;;;;;;;;;20.88;42.02;101826.47;5059691;28;1855;-73
2023/02/16 08:22:35;;;;;;;;;;;;;;;20.87;42.39;101822.09;5058327;28;2908;-73
2023/02/16 08:25:04;;;;;;;;;;;;;;;20.83;42.34;101827.59;5060200;28;3039;-67
2023/02/16 08:27:32;;;;;;;;;;;;;;;20.87;43.00;101822.09;5058450;28;3444;-67
2023/02/16 08:29:59;;;;;;;;;;;;;;;21.01;42.89;101821.44;5057629;28;2312;-69
2023/02/16 08:32:26;;;;;;;;;;;;;;;21.04;43.47;101814.41;5060386;28;1576;-68
2023/02/16 08:34:53;;;;;;;;;;;;;;;20.90;43.10;101806.44;5056805;28;2951;-64
2023/02/16 08:37:19;;;;;;;;;;;;;;;20.72;43.68;101811.09;5058083;28;2875;-65
2023/02/16 08:39:45;;;;;;;;;;;;;;;20.63;43.82;101812.00;5056363;28;2852;-65
2023/02/16 08:42:12;;;;;;;;;;;;;;;20.58;44.05;101804.50;5055663;28;3339;-64
2023/02/16 08:44:38;;;;;;;;;;;;;;;20.56;44.15;101807.22;5056848;28;3440;-64
2023/02/16 08:47:05;;;;;;;;;;;;;;;20.55;44.27;101794.97;5057950;28;3137;-64
2023/02/16 08:49:31;;;;;;;;;;;;;;;20.54;44.49;101796.31;5057920;28;2778;-64
2023/02/16 08:51:58;;;;;;;;;;;;;;;20.52;44.44;101799.06;5054512;28;3516;-64
2023/02/16 08:54:27;;;;;;;;;;;;;;;20.53;44.60;101808.47;5053620;28;2713;-64
2023/02/16 08:56:54;;;;;;;;;;;;;;;20.53;44.66;101802.72;5053595;28;2888;-64
2023/02/16 08:59:21;;;;;;;;;;;;;;;20.53;44.95;101806.34;5054883;28;3123;-64
2023/02/16 09:01:47;;;;;;;;;;;;;;;20.54;45.01;101796.31;5055714;28;3136;-65
2023/02/16 09:04:13;;;;;;;;;;;;;;;20.53;45.09;101797.72;5055925;28;2772;-65
2023/02/16 09:06:40;;;;;;;;;;;;;;;20.55;45.30;101799.94;5052914;28;2896;-64
2023/02/16 09:09:07;;;;;;;;;;;;;;;20.53;45.33;101803.47;5054176;28;3121;-64
2023/02/16 09:11:34;;;;;;;;;;;;;;;20.51;45.44;101789.69;5053828;28;3661;-64
2023/02/16 09:14:01;;;;;;;;;;;;;;;20.53;45.34;101794.09;5055134;28;2820;-64
2023/02/16 09:16:28;;;;;;;;;;;;;;;20.51;45.45;101801.22;5054375;28;2922;-65
2023/02/16 09:18:56;;;;;;;;;;;;;;;20.51;45.67;101792.59;5054934;28;3273;-65
2023/02/16 09:21:24;;;;;;;;;;;;;;;20.51;45.82;101795.47;5056196;28;3066;-64
2023/02/16 09:23:50;;;;;;;;;;;;;;;20.51;45.73;101786.81;5057903;28;2077;-64
2023/02/16 09:26:17;;;;;;;;;;;;;;;20.53;45.73;101805.59;5053463;28;3014;-64
2023/02/16 09:28:44;;;;;;;;;;;;;;;20.56;45.83;101798.59;5052744;28;2860;-64
2023/02/16 09:31:11;;;;;;;;;;;;;;;20.54;45.93;101795.59;5056072;28;3253;-64
2023/02/16 09:33:38;;;;;;;;;;;;;;;20.54;46.32;101795.59;5056594;28;1623;-64
2023/02/16 09:36:05;;;;;;;;;;;;;;;20.55;46.12;101794.19;5056764;28;2924;-65
2023/02/16 09:38:32;;;;;;;;;;;;;;;20.55;46.17;101789.22;5057689;28;1541;-64
2023/02/16 09:41:04;;;;;;;;;;;;;;;20.55;46.36;101794.19;5055964;28;2500;-64
2023/02/16 09:43:37;;;;;;;;;;;;;;;20.55;46.54;101791.31;5054616;28;2504;-64
2023/02/16 09:46:03;;;;;;;;;;;;;;;20.56;46.39;101789.97;5051993;28;2956;-64
2023/02/16 09:48:33;;;;;;;;;;;;;;;20.56;46.39;101782.09;5054045;28;2849;-64
2023/02/16 09:50:59;;;;;;;;;;;;;;;20.55;46.33;101788.44;5053217;28;2867;-64
2023/02/16 09:53:36;;;;;;;;;;;;;;;20.54;46.55;101784.81;5053466;28;3613;-64
2023/02/16 09:56:07;;;;;;;;;;;;;;;20.53;46.45;101788.34;5055746;28;3150;-64
2023/02/16 09:58:44;;;;;;;;;;;;;;;20.53;46.60;101785.47;5057041;28;1578;-64
2023/02/16 10:01:16;;;;;;;;;;;;;;;20.56;46.52;101784.19;5053561;28;2835;-67
2023/02/16 10:03:48;;;;;;;;;;;;;;;20.61;46.51;101783.84;5070218;28;1566;-66
2023/02/16 10:06:32;;;;;;;;;;;;;;;20.70;46.81;101799.47;5056747;28;4492;-66
2023/02/16 10:09:03;;;;;;;;;;;;;;;20.78;46.42;101797.09;5059608;28;4072;-69
2023/02/16 10:11:37;;;;;;;;;;;;;;;20.84;46.24;101794.53;5061564;28;1666;-73
2023/02/16 10:14:07;;;;;;;;;;;;;;;20.84;46.61;101788.78;5059993;28;3969;-73
2023/02/16 10:16:37;;;;;;;;;;;;;;;20.75;46.40;101803.34;5055814;28;1686;-70
2023/02/16 10:19:06;;;;;;;;;;;;;;;20.75;46.64;101801.19;5052440;28;1698;-74
2023/02/16 10:21:32;;;;;;;;;;;;;;;20.84;46.40;101797.41;5058257;28;1604;-76
2023/02/16 10:24:03;;;;;;;;;;;;;;;20.83;46.72;101800.94;5058281;28;1732;-69
2023/02/16 10:26:31;;;;;;;;;;;;;;;20.67;46.52;101794.97;5051282;28;3586;-67
2023/02/16 10:28:57;;;;;;;;;;;;;;;18.94;40.32;101802.69;5049632;28;3146;-69
2023/02/16 10:31:27;;;;;;;;;;;;;;;18.59;46.78;101795.31;5052987;28;2930;-67
2023/02/16 10:33:56;;;;;;;;;;;;;;;18.86;44.05;101802.91;5052167;28;2951;-62
2023/02/16 10:36:27;;;;;;;;;;;;;;;19.91;45.94;101787.47;5053502;28;3043;-72
2023/02/16 10:38:56;;;;;;;;;;;;;;;20.45;45.34;101774.94;5058847;28;3291;-75
2023/02/16 10:41:31;;;;;;;;;;;;;;;20.65;45.72;101768.94;5061551;28;3554;-75
2023/02/16 10:43:57;;;;;;;;;;;;;;;20.71;45.48;101772.19;5063805;28;4629;-74
2023/02/16 10:46:24;;;;;;;;;;;;;;;20.76;45.13;101770.31;5068928;28;2594;-73
2023/02/16 10:48:51;;;;;;;;;;;;;;;20.79;45.34;101772.66;5065089;28;3031;-72
2023/02/16 10:51:18;;;;;;;;;;;;;;;20.84;45.43;101768.63;5054648;28;3111;-72
2023/02/16 10:53:45;;;;;;;;;;;;;;;20.89;45.78;101766.75;5064042;28;2757;-71
2023/02/16 10:56:35;;;;;;;;;;;;;;;20.90;45.68;101768.25;5063759;28;3345;-74
2023/02/16 10:59:03;;;;;;;;;;;;;;;20.92;45.97;101762.63;5056566;28;2946;-79
2023/02/16 11:01:41;;;;;;;;;;;;;;;20.93;45.64;101764.84;5055264;28;2919;-74
2023/02/16 11:04:09;;;;;;;;;;;;;;;21.00;45.95;101762.34;5058064;28;2680;-72
2023/02/16 11:06:35;;;;;;;;;;;;;;;21.03;46.12;101755.34;5064274;28;3049;-75
2023/02/16 11:09:03;;;;;;;;;;;;;;;21.06;46.10;101771.34;5059669;28;2997;-74
2023/02/16 11:11:33;;;;;;;;;;;;;;;21.07;46.16;101767.84;5055076;28;2894;-74
2023/02/16 11:14:29;;;;;;;;;;;;;;;21.13;46.23;101771.03;5061487;28;2252;-73
2023/02/16 11:17:06;;;;;;;;;;;;;;;21.27;46.06;101755.97;5059220;28;2975;-73
2023/02/16 11:19:32;;;;;;;;;;;;;;;21.34;45.74;101749.91;5060460;28;4221;-71
2023/02/16 11:21:59;;;;;;;;;;;;;;;21.12;45.35;101751.53;5059795;28;2787;-64
2023/02/16 11:24:26;;;;;;;;;;;;;;;20.47;41.41;101749.16;5063785;28;2445;-65
2023/02/16 11:27:00;;;;;;;;;;;;;;;20.65;42.95;101740.16;5056031;28;1851;-64
2023/02/16 11:29:26;;;;;;;;;;;;;;;20.77;45.32;101748.75;5055770;28;2969;-65
2023/02/16 11:31:52;;;;;;;;;;;;;;;20.81;45.09;101738.25;5055126;28;2847;-66
2023/02/16 11:34:19;;;;;;;;;;;;;;;20.76;45.50;101741.53;5065722;28;4742;-66
2023/02/16 11:36:45;;;;;;;;;;;;;;;20.77;46.08;101740.13;5059207;28;2938;-67
2023/02/16 11:39:12;;;;;;;;;;;;;;;20.79;46.14;101732.34;5051157;28;2416;-67
2023/02/16 11:42:11;;;;;;;;;;;;;;;20.89;46.29;101735.06;5052613;28;2869;-68
2023/02/16 11:44:38;;;;;;;;;;;;;;;21.13;46.33;101729.97;5025815;28;4524;-69
2023/02/16 11:47:07;;;;;;;;;;;;;;;21.21;46.20;101729.69;5055940;28;4142;-69
2023/02/16 11:49:35;;;;;;;;;;;;;;;21.23;46.09;101721.91;5052215;28;3045;-66
2023/02/16 11:52:17;;;;;;;;;;;;;;;21.24;46.18;101729.19;5057180;28;4563;-72
2023/02/16 11:54:50;;;;;;;;;;;;;;;20.73;41.86;101722.63;5053081;28;3005;-63
2023/02/16 11:57:27;;;;;;;;;;;;;;;20.37;39.68;101716.94;5056288;28;1589;-73
2023/02/16 11:59:54;;;;;;;;;;;;;;;20.41;38.99;101717.19;5051792;28;4471;-70
2023/02/16 12:02:28;;;;;;;;;;;;;;;20.86;39.69;101722.69;5050925;28;4751;-74
2023/02/16 12:04:56;;;;;;;;;;;;;;;21.10;41.67;101731.25;5055213;28;4392;-77
2023/02/16 12:07:26;;;;;;;;;;;;;;;21.20;43.02;101726.06;5061338;28;4369;-75
2023/02/16 12:09:57;;;;;;;;;;;;;;;21.29;43.07;101724.41;5061829;28;3204;-72
2023/02/16 12:12:37;;;;;;;;;;;;;;;21.30;43.59;101709.38;5054221;28;2569;-71
2023/02/16 12:15:12;;;;;;;;;;;;;;;21.19;44.39;101709.41;5062085;28;2999;-67
2023/02/16 12:18:05;;;;;;;;;;;;;;;21.27;44.59;101704.84;5052610;28;3071;-63
2023/02/16 12:20:48;;;;;;;;;;;;;;;21.30;44.62;101697.06;5035864;28;2863;-66
2023/02/16 12:23:33;;;;;;;;;;;;;;;21.24;45.12;101709.00;5051916;28;3145;-68
2023/02/16 12:26:05;;;;;;;;;;;;;;;21.26;45.13;101703.38;5052991;28;3606;-66
2023/02/16 12:28:51;;;;;;;;;;;;;;;21.30;45.09;101697.84;5042898;28;2950;-67
2023/02/16 12:31:27;;;;;;;;;;;;;;;21.30;45.57;101702.84;5049529;28;4526;-77
2023/02/16 12:33:57;;;;;;;;;;;;;;;21.36;45.36;101699.56;5049479;28;3683;-70
2023/02/16 12:36:27;;;;;;;;;;;;;;;21.33;45.73;101701.56;5043213;28;4334;-74
2023/02/16 12:39:12;;;;;;;;;;;;;;;21.47;45.71;101705.28;5052003;28;4291;-70
2023/02/16 12:41:57;;;;;;;;;;;;;;;21.50;45.48;101692.47;5051029;28;3177;-70
2023/02/16 12:44:29;;;;;;;;;;;;;;;21.53;45.57;101696.97;5048933;28;3875;-67
2023/02/16 12:46:58;;;;;;;;;;;;;;;21.29;45.49;101696.31;5050123;28;2941;-68
2023/02/16 12:49:26;;;;;;;;;;;;;;;21.30;45.79;101689.19;5061190;28;3373;-74
2023/02/16 12:51:53;;;;;;;;;;;;;;;21.42;45.50;101682.66;5055231;28;2885;-71
2023/02/16 12:54:28;;;;;;;;;;;;;;;21.38;45.07;101682.38;5050866;28;2922;-72
2023/02/16 12:57:03;;;;;;;;;;;;;;;21.46;45.15;101685.72;5054167;28;2974;-71
2023/02/16 12:59:33;;;;;;;;;;;;;;;21.45;45.05;101681.38;5058933;28;2812;-69
2023/02/16 13:01:59;;;;;;;;;;;;;;;21.45;45.43;101679.22;5054116;28;3098;-69
2023/02/16 13:04:35;;;;;;;;;;;;;;;21.49;45.27;101675.81;5051729;28;2852;-71
2023/02/16 13:07:05;;;;;;;;;;;;;;;21.59;45.52;101670.59;5053134;28;2835;-71
2023/02/16 13:09:34;;;;;;;;;;;;;;;21.68;45.31;101678.28;5052023;28;2942;-71
2023/02/16 13:12:19;;;;;;;;;;;;;;;21.69;45.48;101671.16;5049992;28;2937;-69
2023/02/16 13:14:47;;;;;;;;;;;;;;;21.69;45.20;101674.03;5053738;28;3239;-71
2023/02/16 13:17:18;;;;;;;;;;;;;;;21.71;45.18;101670.50;5047019;28;3274;-66
2023/02/16 13:19:45;;;;;;;;;;;;;;;21.68;45.00;101666.78;5050522;28;4264;-66
2023/02/16 13:22:22;;;;;;;;;;;;;;;21.69;45.20;101665.41;5054808;28;4010;-68
2023/02/16 13:25:05;;;;;;;;;;;;;;;21.66;45.13;101652.25;5059650;28;1838;-66
2023/02/16 13:27:50;;;;;;;;;;;;;;;21.70;45.04;101654.59;5049141;28;3973;-72
2023/02/16 13:30:26;;;;;;;;;;;;;;;21.67;45.26;101653.75;5045524;28;3580;-69
2023/02/16 13:33:09;;;;;;;;;;;;;;;21.61;45.13;101656.31;5048936;28;4622;-71
2023/02/16 13:35:56;;;;;;;;;;;;;;;21.58;45.12;101657.59;5060189;28;4524;-71
2023/02/16 13:38:42;;;;;;;;;;;;;;;21.58;45.06;101654.72;5050831;28;2926;-71
2023/02/16 13:41:18;;;;;;;;;;;;;;;21.56;45.19;101648.84;5053885;28;2319;-71
2023/02/16 13:43:51;;;;;;;;;;;;;;;21.55;45.34;101653.09;5057521;28;3094;-69
2023/02/16 13:46:21;;;;;;;;;;;;;;;21.58;45.27;101659.69;5054053;28;2638;-69
2023/02/16 13:48:48;;;;;;;;;;;;;;;21.61;45.05;101650.53;5050791;28;2935;-66
2023/02/16 13:51:22;;;;;;;;;;;;;;;21.50;45.21;101657.88;5035897;28;3200;-73
2023/02/16 13:53:49;;;;;;;;;;;;;;;21.49;45.30;101655.66;5052116;28;5944;-71
2023/02/16 13:56:22;;;;;;;;;;;;;;;21.57;45.34;101646.69;5049012;28;2675;-70
2023/02/16 13:58:49;;;;;;;;;;;;;;;21.61;45.47;101650.53;5048809;28;2972;-69
2023/02/16 14:01:37;;;;;;;;;;;;;;;21.67;45.22;101650.88;5051849;28;2762;-74
2023/02/16 14:04:05;;;;;;;;;;;;;;;21.67;45.16;101647.22;5052767;28;2780;-69
2023/02/16 14:06:33;;;;;;;;;;;;;;;21.64;45.11;101654.28;5053388;28;2914;-69
2023/02/16 14:09:11;;;;;;;;;;;;;;;21.59;45.19;101647.53;5056341;28;1671;-66
2023/02/16 14:11:56;;;;;;;;;;;;;;;21.64;45.23;101649.25;5046420;28;2573;-68
2023/02/16 14:14:40;;;;;;;;;;;;;;;21.64;45.52;101649.25;5049221;28;2870;-67
2023/02/16 14:17:13;;;;;;;;;;;;;;;21.46;45.40;101654.03;5054160;28;3061;-69
2023/02/16 14:19:47;;;;;;;;;;;;;;;21.43;45.20;101658.19;5055336;28;2382;-70